• Join FlightAware (Why Join?)
  • Login
  • US Flag 
01:37AM EST


 

Airport Tracker/Info


-or-


 

Live Flight TrackerFlight Track Log ✈ MRA679 ✈ 24-Apr-2012 ✈ KIAH - KVCT

Flight Track Log - Related Links

Times and Time Zones

All times are in EDT time to prevent confusion due to time zone crossing. See the MRA679 flight status page for this flight to view local times or setup timezone preferences in your user account.

Time Position Orientation Groundspeed Altitude Reporting Facility
EDT Latitude Longitude Course Direction KTS MPH feet Rate Location/Type
08:00AM 30.0078 -95.3569 254° West 106 122 500  Level Houston Center
08:02AM 29.9961 -95.4044 250° West 130 150 1,500 720 Climbing Houston Center
08:02AM 29.9847 -95.4400 244° Southwest 128 147 2,100 600 Climbing Houston Center
08:04AM 29.9669 -95.4825 247° West 132 152 2,800 420 Climbing Houston Center
08:05AM 29.9511 -95.5250 240° Southwest 154 177 3,000 60 Climbing Houston Center
08:06AM 29.9289 -95.5697 237° Southwest 156 180 3,000  Level Houston Center
08:07AM 29.9047 -95.6119 227° Southwest 153 176 3,000  Level Houston Center
08:08AM 29.8744 -95.6492 231° Southwest 156 180 3,000  Level Houston Center
08:09AM 29.8461 -95.6889 225° Southwest 156 180 3,000 120 Level Houston Center
08:10AM 29.8181 -95.7211 237° Southwest 153 176 3,300 240 Climbing Houston Center
08:11AM 29.7958 -95.7611 225° Southwest 145 167 3,500 180 Climbing Houston Center
08:12AM 29.7656 -95.7958 231° Southwest 150 173 3,700 180 Climbing Houston Center
08:13AM 29.7394 -95.8328 225° Southwest 152 175 3,900 120 Climbing Houston Center
08:14AM 29.7050 -95.8722 229° Southwest 150 173 4,000 180 Climbing Houston Center
08:15AM 29.6786 -95.9069 227° Southwest 152 175 4,300 240 Climbing Houston Center
08:16AM 29.6483 -95.9439 227° Southwest 151 174 4,500 240 Climbing Houston Center
08:17AM 29.6181 -95.9808 231° Southwest 160 184 4,900 300 Climbing Houston Center
08:18AM 29.5917 -96.0181 229° Southwest 160 184 5,200 300 Climbing Houston Center
08:19AM 29.5633 -96.0550 225° Southwest 160 184 5,500 300 Climbing Houston Center
08:20AM 29.5331 -96.0894 227° Southwest 160 184 5,900 180 Climbing Houston Center
08:21AM 29.5047 -96.1242 224° Southwest 160 184 5,900  Level Houston Center
08:22AM 29.4722 -96.1608 227° Southwest 160 184 5,900  Level Houston Center
08:23AM 29.4419 -96.1978 226° Southwest 160 184 5,900  Level Houston Center
08:24AM 29.4114 -96.2344 228° Southwest 160 184 5,900  Level Houston Center
08:25AM 29.3808 -96.2736 227° Southwest 160 184 5,900  Level Houston Center
08:26AM 29.3503 -96.3106 228° Southwest 160 184 5,900  Level Houston Center
08:27AM 29.3197 -96.3497 227° Southwest 160 184 5,900  Level Houston Center
08:28AM 29.2894 -96.3864 224° Southwest 160 184 5,900  Level Houston Center
08:29AM 29.2567 -96.4231 230° Southwest 160 184 5,900  Level Houston Center
08:30AM 29.2283 -96.4622 226° Southwest 160 184 5,900  Level Houston Center
08:31AM 29.1978 -96.4989 232° Southwest 160 184 5,900 -180 Level Houston Center
08:32AM 29.1692 -96.5403 228° Southwest 160 184 5,600 -420 Descending Houston Center
08:33AM 29.1364 -96.5817 229° Southwest 165 190 5,100 -480 Descending Houston Center
08:34AM 29.1056 -96.6228 228° Southwest 170 196 4,700 -420 Descending Houston Center
08:35AM 29.0728 -96.6642 229° Southwest 170 196 4,300 -420 Descending Houston Center
08:36AM 29.0419 -96.7053 228° Southwest 175 201 3,900 -360 Descending Houston Center
08:37AM 29.0114 -96.7442 232° Southwest 175 201 3,600 -360 Descending Houston Center
08:38AM 28.9828 -96.7856 259° West 175 201 3,200 -540 Descending Houston Center
08:39AM 28.9744 -96.8350 270° West 169 194 2,600 -420 Descending Houston Center
08:40AM 28.9744 -96.8919 242° Southwest 169 194 2,400 -300 Descending Houston Center
08:41AM 28.9539 -96.9361 222° Southwest 169 194 2,100 -420 Descending Houston Center
08:42AM 28.9214 -96.9700 166° South 164 189 1,600 -720 Descending Houston Center
08:43AM 28.8822 -96.9586 166° South 126 145 700 -900 Descending Houston Center